Minchumina, Alaska
Current Conditions -  °F | °C
As of 10:52 PM on Wednesday 26 Nov 2014 (Local Time) from PATA Reporting Station
Clear Clear  
Wind Chill: -1°   Ceiling: Unl
Heat Index: -1°   Visibility: 10mi
Dew Point: -8°   Wind: 3mph
Humidity: 72%   Direction: 80°E
Pressure: 30.53"   Gusts: NA
Location:  63.9°N, 152.27°W
Report Text: PATA 270752Z AUTO 08003KT 10SM CLR M18/M22 A3053 RMK AO2 SLP348 T11831222 TSNO
Loading
Personal Weather Stations






























Interactive Weather Map New forecast layout! Learn more

10-Day Weather Forecast

Advertisements
Track Severe Weather on mobile